createdAt,value
2023-04-16T07:38:01.444Z,8.50
2023-04-16T07:40:30.910Z,8.50
2023-04-16T07:43:00.242Z,8.40
2023-04-16T07:45:29.154Z,8.50
2023-04-16T07:47:58.350Z,8.50
2023-04-16T07:50:27.489Z,8.60
2023-04-16T07:52:56.480Z,8.60
2023-04-16T07:55:27.226Z,8.60
2023-04-16T07:57:59.440Z,8.70
2023-04-16T08:00:28.518Z,8.70
2023-04-16T08:02:57.909Z,8.70
2023-04-16T08:05:27.055Z,8.80
2023-04-16T08:07:56.227Z,8.80
2023-04-16T08:10:27.780Z,8.80
2023-04-16T08:12:56.992Z,8.90
2023-04-16T08:15:26.028Z,8.90
2023-04-16T08:17:55.165Z,8.90
2023-04-16T08:20:24.281Z,8.90
2023-04-16T08:22:54.886Z,8.90
2023-04-16T08:25:25.132Z,9.00
2023-04-16T08:27:55.637Z,9.00
2023-04-16T08:30:24.881Z,9.00
2023-04-16T08:32:54.772Z,9.00
2023-04-16T08:35:23.957Z,9.00
2023-04-16T08:37:54.158Z,9.00
2023-04-16T08:40:23.327Z,9.00
2023-04-16T08:42:57.326Z,9.00
2023-04-16T08:45:27.892Z,9.10
2023-04-16T08:47:57.017Z,9.10
2023-04-16T08:50:27.524Z,9.10
2023-04-16T08:53:01.161Z,9.10
2023-04-16T08:55:38.043Z,9.10
2023-04-16T08:58:11.432Z,9.10
2023-04-16T09:00:42.440Z,9.10
2023-04-16T09:03:12.361Z,9.20
2023-04-16T09:05:43.400Z,9.20
2023-04-16T09:08:12.958Z,9.20
2023-04-16T09:10:42.488Z,9.30
2023-04-16T09:13:13.762Z,9.30
2023-04-16T09:15:43.757Z,9.30
2023-04-16T09:18:13.008Z,9.30
2023-04-16T09:20:42.130Z,9.30
2023-04-16T09:23:12.199Z,9.40
2023-04-16T09:25:41.279Z,9.50
2023-04-16T09:28:12.723Z,9.50
2023-04-16T09:30:41.913Z,9.60
2023-04-16T09:33:16.924Z,9.60
2023-04-16T09:35:49.697Z,9.70
2023-04-16T09:38:19.244Z,9.60
2023-04-16T09:40:48.917Z,9.70
2023-04-16T09:43:20.529Z,9.70
2023-04-16T09:45:53.838Z,9.70
2023-04-16T09:48:31.446Z,9.70
2023-04-16T09:51:01.771Z,9.70
2023-04-16T09:53:31.994Z,9.60
2023-04-16T09:56:02.677Z,9.70
2023-04-16T09:58:33.546Z,9.70
2023-04-16T10:01:03.772Z,9.60
2023-04-16T10:03:33.905Z,9.60
2023-04-16T10:06:08.686Z,9.60
2023-04-16T10:08:37.833Z,9.70
2023-04-16T10:11:07.238Z,9.70
2023-04-16T10:13:37.736Z,9.70
2023-04-16T10:16:08.006Z,9.70
2023-04-16T10:18:39.007Z,9.70
2023-04-16T10:21:08.927Z,9.70
2023-04-16T10:23:38.172Z,9.70
2023-04-16T10:26:41.093Z,9.70
2023-04-16T10:29:13.642Z,9.70
2023-04-16T10:31:43.886Z,9.70
2023-04-16T10:34:13.881Z,9.60
2023-04-16T10:36:43.221Z,9.60
2023-04-16T10:39:16.889Z,9.60
2023-04-16T10:41:47.397Z,9.60
2023-04-16T10:44:20.057Z,9.60
2023-04-16T10:46:51.042Z,9.60
2023-04-16T10:49:21.656Z,9.70
2023-04-16T10:51:58.398Z,9.70
2023-04-16T10:54:29.162Z,9.70
2023-04-16T10:57:01.636Z,9.70
2023-04-16T10:59:35.295Z,9.70
2023-04-16T11:02:09.520Z,9.70
2023-04-16T11:04:40.336Z,9.70
2023-04-16T11:07:17.204Z,9.70
2023-04-16T11:09:48.330Z,9.70
2023-04-16T11:12:18.874Z,9.70
2023-04-16T11:14:52.169Z,9.70
2023-04-16T11:17:21.815Z,9.70
2023-04-16T11:19:51.019Z,9.80
2023-04-16T11:22:23.369Z,9.80
2023-04-16T11:24:56.521Z,9.90
2023-04-16T11:27:25.838Z,9.80
2023-04-16T11:30:04.640Z,9.90
2023-04-16T11:32:34.828Z,9.90
2023-04-16T11:35:05.579Z,9.90
2023-04-16T11:37:35.514Z,9.90
2023-04-16T11:40:07.307Z,10.00
2023-04-16T11:42:38.283Z,10.00
2023-04-16T11:45:10.719Z,10.00
2023-04-16T11:47:47.428Z,9.90
2023-04-16T11:50:21.488Z,10.00
2023-04-16T11:52:51.079Z,9.90
2023-04-16T11:55:21.082Z,9.90
2023-04-16T11:57:50.894Z,9.90
2023-04-16T12:00:24.597Z,9.90
2023-04-16T12:02:55.661Z,9.80
2023-04-16T12:05:32.647Z,9.80
2023-04-16T12:08:03.496Z,9.90
2023-04-16T12:10:35.215Z,9.90
2023-04-16T12:13:14.321Z,9.90
2023-04-16T12:15:49.442Z,9.90
2023-04-16T12:18:19.128Z,9.90
2023-04-16T12:20:48.964Z,9.90
2023-04-16T12:23:28.321Z,9.90
2023-04-16T12:25:59.957Z,9.80
2023-04-16T12:28:31.443Z,9.80
2023-04-16T12:31:02.920Z,9.70
2023-04-16T12:33:32.652Z,9.70
2023-04-16T12:36:02.220Z,9.70
2023-04-16T12:38:32.247Z,9.70
2023-04-16T12:41:02.480Z,9.70
2023-04-16T12:43:31.610Z,9.70
2023-04-16T12:46:04.160Z,9.70
2023-04-16T12:48:34.074Z,9.80
2023-04-16T12:51:03.156Z,9.80
2023-04-16T12:53:32.166Z,9.80
2023-04-16T12:56:01.211Z,9.70
2023-04-16T12:58:30.719Z,9.80
2023-04-16T13:01:02.032Z,9.80
2023-04-16T13:03:31.482Z,9.70
2023-04-16T13:06:02.522Z,9.70
2023-04-16T13:08:32.999Z,9.70
2023-04-16T13:11:02.292Z,9.70
2023-04-16T13:13:31.443Z,9.80
2023-04-16T13:16:09.721Z,9.80
2023-04-16T13:18:40.404Z,9.80
2023-04-16T13:21:10.365Z,9.80
2023-04-16T13:23:39.379Z,9.90
2023-04-16T13:26:08.558Z,9.90
2023-04-16T13:28:39.699Z,10.00
2023-04-16T13:31:10.581Z,10.00
2023-04-16T13:33:40.384Z,9.90
2023-04-16T13:36:09.643Z,9.90
2023-04-16T13:38:38.811Z,9.80
2023-04-16T13:41:08.085Z,9.70
2023-04-16T13:43:37.311Z,9.70
2023-04-16T13:46:06.590Z,9.80
2023-04-16T13:48:37.204Z,9.80
2023-04-16T13:51:06.394Z,9.70
2023-04-16T13:53:35.605Z,9.70
2023-04-16T13:56:05.320Z,9.60
2023-04-16T13:58:34.626Z,9.70
2023-04-16T14:01:04.062Z,9.60
2023-04-16T14:03:36.429Z,9.70
2023-04-16T14:06:07.595Z,9.60
2023-04-16T14:08:36.874Z,9.70
2023-04-16T14:11:06.708Z,9.70
2023-04-16T14:13:35.669Z,9.70
2023-04-16T14:16:05.112Z,9.60
2023-04-16T14:18:34.256Z,9.60
2023-04-16T14:21:03.716Z,9.60
2023-04-16T14:23:34.476Z,9.60
2023-04-16T14:26:03.918Z,9.60
2023-04-16T14:28:32.879Z,9.60
2023-04-16T14:31:01.991Z,9.60
2023-04-16T14:33:32.753Z,9.60
2023-04-16T14:36:03.194Z,9.50
2023-04-16T14:38:34.875Z,9.60
2023-04-16T14:41:03.920Z,9.50
2023-04-16T14:43:32.901Z,9.70
2023-04-16T14:46:02.507Z,9.60
2023-04-16T14:48:32.235Z,9.50
2023-04-16T14:51:01.583Z,9.50
2023-04-16T14:53:30.881Z,9.50
2023-04-16T14:56:01.971Z,9.50
2023-04-16T14:58:31.680Z,9.40
2023-04-16T15:01:01.186Z,9.50
2023-04-16T15:03:31.474Z,9.50
2023-04-16T15:06:00.738Z,9.50
2023-04-16T15:08:29.927Z,9.50
2023-04-16T15:10:58.918Z,9.50
2023-04-16T15:13:34.206Z,9.50
2023-04-16T15:16:03.108Z,9.50
2023-04-16T15:18:32.181Z,9.50
2023-04-16T15:21:01.323Z,9.50
2023-04-16T15:23:30.631Z,9.50
2023-04-16T15:26:00.358Z,9.50
2023-04-16T15:28:31.238Z,9.50
2023-04-16T15:31:00.471Z,9.50
2023-04-16T15:33:29.684Z,9.50
2023-04-16T15:35:59.352Z,9.50
2023-04-16T15:38:30.010Z,9.50
2023-04-16T15:41:01.098Z,9.50
2023-04-16T15:43:32.032Z,9.50
2023-04-16T15:46:01.200Z,9.50
2023-04-16T15:48:30.565Z,9.50
2023-04-16T15:51:00.046Z,9.50
2023-04-16T15:53:29.632Z,9.50
2023-04-16T15:55:58.654Z,9.50
2023-04-16T15:58:27.872Z,9.50
2023-04-16T16:00:58.444Z,9.50
2023-04-16T16:03:28.153Z,9.50
2023-04-16T16:05:59.337Z,9.40
2023-04-16T16:08:34.697Z,9.40
2023-04-16T16:11:04.206Z,9.40
2023-04-16T16:13:33.641Z,9.40
2023-04-16T16:16:04.295Z,9.30
2023-04-16T16:18:33.983Z,9.40
2023-04-16T16:21:03.254Z,9.30
2023-04-16T16:23:32.248Z,9.40
2023-04-16T16:26:01.873Z,9.40
2023-04-16T16:28:31.159Z,9.40
2023-04-16T16:31:01.711Z,9.40
2023-04-16T16:33:32.731Z,9.30
2023-04-16T16:36:02.214Z,9.30
2023-04-16T16:38:31.444Z,9.30
2023-04-16T16:41:00.525Z,9.30
2023-04-16T16:43:29.910Z,9.30
2023-04-16T16:45:58.888Z,9.30
2023-04-16T16:48:28.158Z,9.30
2023-04-16T16:50:59.170Z,9.30
2023-04-16T16:53:28.409Z,9.30
2023-04-16T16:55:57.424Z,9.30
2023-04-16T16:58:27.844Z,9.40
2023-04-16T17:00:58.090Z,9.30
2023-04-16T17:03:27.315Z,9.30
2023-04-16T17:05:57.808Z,9.30
2023-04-16T17:08:27.052Z,9.30
2023-04-16T17:10:56.886Z,9.30
2023-04-16T17:13:26.121Z,9.30
2023-04-16T17:15:55.451Z,9.30
2023-04-16T17:18:24.491Z,9.30
2023-04-16T17:20:53.573Z,9.30
2023-04-16T17:23:24.329Z,9.30
2023-04-16T17:25:53.968Z,9.30
2023-04-16T17:28:23.085Z,9.30
2023-04-16T17:30:54.085Z,9.20
2023-04-16T17:33:23.210Z,9.20
2023-04-16T17:35:52.366Z,9.20
2023-04-16T17:38:21.406Z,9.20
2023-04-16T17:40:52.183Z,9.20
2023-04-16T17:43:21.733Z,9.20
2023-04-16T17:45:51.418Z,9.20
2023-04-16T17:48:21.124Z,9.20
2023-04-16T17:50:50.367Z,9.20
2023-04-16T17:53:19.486Z,9.20
2023-04-16T17:55:56.494Z,9.20
2023-04-16T17:58:26.798Z,9.20
2023-04-16T18:00:56.607Z,9.20
2023-04-16T18:03:26.434Z,9.20
2023-04-16T18:05:55.799Z,9.20
2023-04-16T18:08:25.515Z,9.20
2023-04-16T18:10:57.467Z,9.20
2023-04-16T18:13:27.720Z,9.20
2023-04-16T18:15:58.278Z,9.20
2023-04-16T18:18:28.014Z,9.20
2023-04-16T18:20:57.927Z,9.20
2023-04-16T18:23:27.623Z,9.20
2023-04-16T18:25:58.920Z,9.30
2023-04-16T18:28:28.885Z,9.30
2023-04-16T18:30:59.090Z,9.20
2023-04-16T18:33:52.589Z,9.20
2023-04-16T18:36:18.081Z,9.20
2023-04-16T18:38:59.980Z,9.10
2023-04-16T18:41:32.647Z,9.10
2023-04-16T18:44:02.553Z,9.10
2023-04-16T18:46:31.991Z,9.10
2023-04-16T18:49:01.405Z,9.10
2023-04-16T18:51:31.074Z,9.10
2023-04-16T18:54:00.529Z,9.10
2023-04-16T18:56:32.980Z,9.20
2023-04-16T18:59:02.326Z,9.30
2023-04-16T19:01:31.821Z,9.30
2023-04-16T19:04:01.891Z,9.20
2023-04-16T19:06:32.606Z,9.30
2023-04-16T19:09:01.994Z,9.20
2023-04-16T19:11:33.082Z,9.10
2023-04-16T19:14:03.881Z,9.10
2023-04-16T19:16:33.582Z,9.10
2023-04-16T19:19:02.894Z,9.00
2023-04-16T19:21:33.253Z,9.00
2023-04-16T19:24:02.611Z,9.00
2023-04-16T19:26:33.484Z,9.00
2023-04-16T19:29:02.766Z,9.00
2023-04-16T19:31:31.806Z,9.00
2023-04-16T19:34:01.126Z,9.00
2023-04-16T19:36:30.493Z,9.00
2023-04-16T19:38:59.520Z,9.00
2023-04-16T19:41:28.671Z,9.10
2023-04-16T19:43:59.189Z,9.10
2023-04-16T19:46:28.726Z,9.10
2023-04-16T19:48:58.155Z,9.10
2023-04-16T19:51:27.565Z,9.10
2023-04-16T19:53:59.047Z,9.00
2023-04-16T19:56:28.360Z,8.90
2023-04-16T19:58:59.246Z,8.90
2023-04-16T20:01:28.665Z,8.90
2023-04-16T20:03:57.787Z,8.90
2023-04-16T20:06:27.205Z,8.90
2023-04-16T20:08:57.599Z,8.90
2023-04-16T20:11:26.920Z,8.90
2023-04-16T20:13:56.445Z,9.00
2023-04-16T20:16:27.330Z,9.00
2023-04-16T20:18:57.374Z,9.00
2023-04-16T20:21:26.568Z,9.00
2023-04-16T20:23:56.118Z,9.00
2023-04-16T20:26:28.646Z,9.00
2023-04-16T20:28:57.583Z,9.10
2023-04-16T20:31:28.538Z,9.00
2023-04-16T20:33:57.709Z,9.00
2023-04-16T20:36:28.163Z,9.00
2023-04-16T20:38:57.232Z,9.00
2023-04-16T20:41:27.558Z,8.90
2023-04-16T20:43:56.715Z,8.90
2023-04-16T20:46:30.403Z,8.90
2023-04-16T20:49:01.534Z,8.90
2023-04-16T20:51:31.797Z,8.90
2023-04-16T20:54:01.366Z,8.90
2023-04-16T20:56:30.271Z,8.90
2023-04-16T20:58:59.592Z,8.80
